sensor_id;sensor_type;location;lat;lon;timestamp;temperature;humidity
33811;DHT22;20119;48.334;16.206;2023-04-09T00:01:09;4.70;99.90
33811;DHT22;20119;48.334;16.206;2023-04-09T00:03:37;4.70;99.90
33811;DHT22;20119;48.334;16.206;2023-04-09T00:06:05;4.60;99.90
33811;DHT22;20119;48.334;16.206;2023-04-09T00:08:33;4.70;99.90
33811;DHT22;20119;48.334;16.206;2023-04-09T00:11:01;4.70;99.90
33811;DHT22;20119;48.334;16.206;2023-04-09T00:13:31;4.70;99.90
33811;DHT22;20119;48.334;16.206;2023-04-09T00:15:58;4.60;99.90
33811;DHT22;20119;48.334;16.206;2023-04-09T00:18:26;4.70;99.90
33811;DHT22;20119;48.334;16.206;2023-04-09T00:20:53;4.60;99.90
33811;DHT22;20119;48.334;16.206;2023-04-09T00:23:21;4.70;99.90
33811;DHT22;20119;48.334;16.206;2023-04-09T00:25:48;4.60;99.90
33811;DHT22;20119;48.334;16.206;2023-04-09T00:28:15;4.70;99.90
33811;DHT22;20119;48.334;16.206;2023-04-09T00:30:45;4.70;99.90
33811;DHT22;20119;48.334;16.206;2023-04-09T00:33:12;4.70;99.90
33811;DHT22;20119;48.334;16.206;2023-04-09T00:35:58;4.70;99.90
33811;DHT22;20119;48.334;16.206;2023-04-09T00:38:26;4.70;99.90
33811;DHT22;20119;48.334;16.206;2023-04-09T00:40:55;4.70;99.90
33811;DHT22;20119;48.334;16.206;2023-04-09T00:43:23;4.70;99.90
33811;DHT22;20119;48.334;16.206;2023-04-09T00:45:51;4.70;99.90
33811;DHT22;20119;48.334;16.206;2023-04-09T00:48:19;4.70;99.90
33811;DHT22;20119;48.334;16.206;2023-04-09T00:50:48;4.70;99.90
33811;DHT22;20119;48.334;16.206;2023-04-09T00:53:15;4.70;99.90
33811;DHT22;20119;48.334;16.206;2023-04-09T00:55:44;4.70;99.90
33811;DHT22;20119;48.334;16.206;2023-04-09T00:58:12;4.70;99.90
33811;DHT22;20119;48.334;16.206;2023-04-09T01:00:40;4.70;99.90
33811;DHT22;20119;48.334;16.206;2023-04-09T01:03:09;4.70;99.90
33811;DHT22;20119;48.334;16.206;2023-04-09T01:05:43;4.70;99.90
33811;DHT22;20119;48.334;16.206;2023-04-09T01:08:22;4.70;99.90
33811;DHT22;20119;48.334;16.206;2023-04-09T01:10:58;4.70;99.90
33811;DHT22;20119;48.334;16.206;2023-04-09T01:13:33;4.70;99.90
33811;DHT22;20119;48.334;16.206;2023-04-09T01:16:02;4.70;99.90
33811;DHT22;20119;48.334;16.206;2023-04-09T01:18:35;4.70;99.90
33811;DHT22;20119;48.334;16.206;2023-04-09T01:21:09;4.70;99.90
33811;DHT22;20119;48.334;16.206;2023-04-09T01:23:45;4.70;99.90
33811;DHT22;20119;48.334;16.206;2023-04-09T01:26:21;4.70;99.90
33811;DHT22;20119;48.334;16.206;2023-04-09T01:28:53;4.70;99.90
33811;DHT22;20119;48.334;16.206;2023-04-09T01:31:27;4.70;99.90
33811;DHT22;20119;48.334;16.206;2023-04-09T01:33:56;4.60;99.90
33811;DHT22;20119;48.334;16.206;2023-04-09T01:36:26;4.70;99.90
33811;DHT22;20119;48.334;16.206;2023-04-09T01:38:56;4.60;99.90
33811;DHT22;20119;48.334;16.206;2023-04-09T01:41:24;4.70;99.90
33811;DHT22;20119;48.334;16.206;2023-04-09T01:43:55;4.70;99.90
33811;DHT22;20119;48.334;16.206;2023-04-09T01:46:26;4.70;99.90
33811;DHT22;20119;48.334;16.206;2023-04-09T01:48:54;4.70;99.90
33811;DHT22;20119;48.334;16.206;2023-04-09T01:51:22;4.60;99.90
33811;DHT22;20119;48.334;16.206;2023-04-09T01:53:51;4.70;99.90
33811;DHT22;20119;48.334;16.206;2023-04-09T01:56:18;4.70;99.90
33811;DHT22;20119;48.334;16.206;2023-04-09T01:58:47;4.70;99.90
33811;DHT22;20119;48.334;16.206;2023-04-09T02:01:23;4.60;99.90
33811;DHT22;20119;48.334;16.206;2023-04-09T02:03:53;4.60;99.90
33811;DHT22;20119;48.334;16.206;2023-04-09T02:06:25;4.60;99.90
33811;DHT22;20119;48.334;16.206;2023-04-09T02:08:59;4.60;99.90
33811;DHT22;20119;48.334;16.206;2023-04-09T02:11:31;4.60;99.90
33811;DHT22;20119;48.334;16.206;2023-04-09T02:14:00;4.60;99.90
33811;DHT22;20119;48.334;16.206;2023-04-09T02:16:31;4.50;99.90
33811;DHT22;20119;48.334;16.206;2023-04-09T02:18:59;4.50;99.90
33811;DHT22;20119;48.334;16.206;2023-04-09T02:21:27;4.40;99.90
33811;DHT22;20119;48.334;16.206;2023-04-09T02:23:56;4.40;99.90
33811;DHT22;20119;48.334;16.206;2023-04-09T02:26:25;4.40;99.90
33811;DHT22;20119;48.334;16.206;2023-04-09T02:28:53;4.30;99.90
33811;DHT22;20119;48.334;16.206;2023-04-09T02:31:21;4.30;99.90
33811;DHT22;20119;48.334;16.206;2023-04-09T02:33:50;4.20;99.90
33811;DHT22;20119;48.334;16.206;2023-04-09T02:36:18;4.20;99.90
33811;DHT22;20119;48.334;16.206;2023-04-09T02:38:46;4.30;99.90
33811;DHT22;20119;48.334;16.206;2023-04-09T02:41:13;4.30;99.90
33811;DHT22;20119;48.334;16.206;2023-04-09T02:43:40;4.40;99.90
33811;DHT22;20119;48.334;16.206;2023-04-09T02:46:09;4.40;99.90
33811;DHT22;20119;48.334;16.206;2023-04-09T02:48:37;4.40;99.90
33811;DHT22;20119;48.334;16.206;2023-04-09T02:51:06;4.40;99.90
33811;DHT22;20119;48.334;16.206;2023-04-09T02:53:35;4.40;99.90
33811;DHT22;20119;48.334;16.206;2023-04-09T02:56:20;4.30;99.90
33811;DHT22;20119;48.334;16.206;2023-04-09T02:58:48;4.30;99.90
33811;DHT22;20119;48.334;16.206;2023-04-09T03:01:18;4.30;99.90
33811;DHT22;20119;48.334;16.206;2023-04-09T03:03:45;4.30;99.90
33811;DHT22;20119;48.334;16.206;2023-04-09T03:06:14;4.30;99.90
33811;DHT22;20119;48.334;16.206;2023-04-09T03:08:42;4.30;99.90
33811;DHT22;20119;48.334;16.206;2023-04-09T03:11:10;4.30;99.90
33811;DHT22;20119;48.334;16.206;2023-04-09T03:13:37;4.30;99.90
33811;DHT22;20119;48.334;16.206;2023-04-09T03:16:06;4.30;99.90
33811;DHT22;20119;48.334;16.206;2023-04-09T03:18:34;4.30;99.90
33811;DHT22;20119;48.334;16.206;2023-04-09T03:21:04;4.20;99.90
33811;DHT22;20119;48.334;16.206;2023-04-09T03:23:35;4.20;99.90
33811;DHT22;20119;48.334;16.206;2023-04-09T03:26:03;4.20;99.90
33811;DHT22;20119;48.334;16.206;2023-04-09T03:28:30;4.10;99.90
33811;DHT22;20119;48.334;16.206;2023-04-09T03:31:00;4.10;99.90
33811;DHT22;20119;48.334;16.206;2023-04-09T03:33:31;4.10;99.90
33811;DHT22;20119;48.334;16.206;2023-04-09T03:35:59;4.10;99.90
33811;DHT22;20119;48.334;16.206;2023-04-09T03:38:27;4.20;99.90
33811;DHT22;20119;48.334;16.206;2023-04-09T03:40:57;4.10;99.90
33811;DHT22;20119;48.334;16.206;2023-04-09T03:43:24;4.20;99.90
33811;DHT22;20119;48.334;16.206;2023-04-09T03:45:52;4.10;99.90
33811;DHT22;20119;48.334;16.206;2023-04-09T03:48:20;4.10;99.90
33811;DHT22;20119;48.334;16.206;2023-04-09T03:50:47;4.10;99.90
33811;DHT22;20119;48.334;16.206;2023-04-09T03:53:15;4.10;99.90
33811;DHT22;20119;48.334;16.206;2023-04-09T03:55:43;4.10;99.90
33811;DHT22;20119;48.334;16.206;2023-04-09T03:58:13;4.10;99.90
33811;DHT22;20119;48.334;16.206;2023-04-09T04:00:40;4.20;99.90
33811;DHT22;20119;48.334;16.206;2023-04-09T04:03:10;4.20;99.90
33811;DHT22;20119;48.334;16.206;2023-04-09T04:05:39;4.20;99.90
33811;DHT22;20119;48.334;16.206;2023-04-09T04:08:07;4.10;99.90
33811;DHT22;20119;48.334;16.206;2023-04-09T04:10:36;4.20;99.90
33811;DHT22;20119;48.334;16.206;2023-04-09T04:13:03;4.10;99.90
33811;DHT22;20119;48.334;16.206;2023-04-09T04:15:38;4.20;99.90
33811;DHT22;20119;48.334;16.206;2023-04-09T04:18:06;4.30;99.90
33811;DHT22;20119;48.334;16.206;2023-04-09T04:20:34;4.20;99.90
33811;DHT22;20119;48.334;16.206;2023-04-09T04:23:03;4.20;99.90
33811;DHT22;20119;48.334;16.206;2023-04-09T04:25:46;4.30;99.90
33811;DHT22;20119;48.334;16.206;2023-04-09T04:28:14;4.20;99.90
33811;DHT22;20119;48.334;16.206;2023-04-09T04:30:43;4.30;99.90
33811;DHT22;20119;48.334;16.206;2023-04-09T04:33:10;4.20;99.90
33811;DHT22;20119;48.334;16.206;2023-04-09T04:35:38;4.30;99.90
33811;DHT22;20119;48.334;16.206;2023-04-09T04:38:05;4.20;99.90
33811;DHT22;20119;48.334;16.206;2023-04-09T04:40:34;4.30;99.90
33811;DHT22;20119;48.334;16.206;2023-04-09T04:43:04;4.30;99.90
33811;DHT22;20119;48.334;16.206;2023-04-09T04:45:32;4.30;99.90
33811;DHT22;20119;48.334;16.206;2023-04-09T04:48:02;4.30;99.90
33811;DHT22;20119;48.334;16.206;2023-04-09T04:50:31;4.30;99.90
33811;DHT22;20119;48.334;16.206;2023-04-09T04:52:58;4.30;99.90
33811;DHT22;20119;48.334;16.206;2023-04-09T04:55:28;4.30;99.90
33811;DHT22;20119;48.334;16.206;2023-04-09T04:57:57;4.30;99.90
33811;DHT22;20119;48.334;16.206;2023-04-09T05:00:28;4.30;99.90
33811;DHT22;20119;48.334;16.206;2023-04-09T05:02:56;4.30;99.90
33811;DHT22;20119;48.334;16.206;2023-04-09T05:05:27;4.40;99.90
33811;DHT22;20119;48.334;16.206;2023-04-09T05:07:55;4.40;99.90
33811;DHT22;20119;48.334;16.206;2023-04-09T05:10:22;4.40;99.90
33811;DHT22;20119;48.334;16.206;2023-04-09T05:12:49;4.40;99.90
33811;DHT22;20119;48.334;16.206;2023-04-09T05:15:17;4.40;99.90
33811;DHT22;20119;48.334;16.206;2023-04-09T05:17:46;4.40;99.90
33811;DHT22;20119;48.334;16.206;2023-04-09T05:20:15;4.50;99.90
33811;DHT22;20119;48.334;16.206;2023-04-09T05:22:45;4.50;99.90
33811;DHT22;20119;48.334;16.206;2023-04-09T05:25:13;4.50;99.90
33811;DHT22;20119;48.334;16.206;2023-04-09T05:27:42;4.50;99.90
33811;DHT22;20119;48.334;16.206;2023-04-09T05:30:10;4.50;99.90
33811;DHT22;20119;48.334;16.206;2023-04-09T05:32:39;4.50;99.90
33811;DHT22;20119;48.334;16.206;2023-04-09T05:35:26;4.50;99.90
33811;DHT22;20119;48.334;16.206;2023-04-09T05:37:55;4.60;99.90
33811;DHT22;20119;48.334;16.206;2023-04-09T05:40:22;4.60;99.90
33811;DHT22;20119;48.334;16.206;2023-04-09T05:42:51;4.70;99.90
33811;DHT22;20119;48.334;16.206;2023-04-09T05:45:19;4.80;99.90
33811;DHT22;20119;48.334;16.206;2023-04-09T05:47:47;4.90;99.90
33811;DHT22;20119;48.334;16.206;2023-04-09T05:50:15;4.90;99.90
33811;DHT22;20119;48.334;16.206;2023-04-09T05:52:44;4.90;99.90
33811;DHT22;20119;48.334;16.206;2023-04-09T05:55:14;5.00;99.90
33811;DHT22;20119;48.334;16.206;2023-04-09T05:57:42;5.00;99.90
33811;DHT22;20119;48.334;16.206;2023-04-09T06:00:11;5.00;99.90
33811;DHT22;20119;48.334;16.206;2023-04-09T06:02:39;5.00;99.90
33811;DHT22;20119;48.334;16.206;2023-04-09T06:05:09;5.00;99.90
33811;DHT22;20119;48.334;16.206;2023-04-09T06:07:41;5.20;99.90
33811;DHT22;20119;48.334;16.206;2023-04-09T06:10:08;5.20;99.90
33811;DHT22;20119;48.334;16.206;2023-04-09T06:12:37;5.30;99.90
33811;DHT22;20119;48.334;16.206;2023-04-09T06:15:05;5.30;99.90
33811;DHT22;20119;48.334;16.206;2023-04-09T06:17:33;5.40;99.90
33811;DHT22;20119;48.334;16.206;2023-04-09T06:20:02;5.40;99.90
33811;DHT22;20119;48.334;16.206;2023-04-09T06:22:30;5.30;99.90
33811;DHT22;20119;48.334;16.206;2023-04-09T06:24:58;5.30;99.90
33811;DHT22;20119;48.334;16.206;2023-04-09T06:27:28;5.40;99.90
33811;DHT22;20119;48.334;16.206;2023-04-09T06:30:09;5.40;99.90
33811;DHT22;20119;48.334;16.206;2023-04-09T06:32:37;5.50;99.90
33811;DHT22;20119;48.334;16.206;2023-04-09T06:35:05;5.60;99.90
33811;DHT22;20119;48.334;16.206;2023-04-09T06:37:33;5.70;99.90
33811;DHT22;20119;48.334;16.206;2023-04-09T06:40:02;6.00;99.90
33811;DHT22;20119;48.334;16.206;2023-04-09T06:42:33;6.20;99.90
33811;DHT22;20119;48.334;16.206;2023-04-09T06:45:03;6.30;99.90
33811;DHT22;20119;48.334;16.206;2023-04-09T06:47:33;6.30;99.90
33811;DHT22;20119;48.334;16.206;2023-04-09T06:50:00;6.50;99.90
33811;DHT22;20119;48.334;16.206;2023-04-09T06:52:28;6.70;99.90
33811;DHT22;20119;48.334;16.206;2023-04-09T06:54:56;6.90;99.90
33811;DHT22;20119;48.334;16.206;2023-04-09T06:57:23;7.00;99.90
33811;DHT22;20119;48.334;16.206;2023-04-09T06:59:50;6.90;99.90
33811;DHT22;20119;48.334;16.206;2023-04-09T07:02:19;7.10;99.90
33811;DHT22;20119;48.334;16.206;2023-04-09T07:04:46;7.40;99.90
33811;DHT22;20119;48.334;16.206;2023-04-09T07:07:13;7.20;99.90
33811;DHT22;20119;48.334;16.206;2023-04-09T07:09:43;7.30;99.90
33811;DHT22;20119;48.334;16.206;2023-04-09T07:12:11;7.40;99.90
33811;DHT22;20119;48.334;16.206;2023-04-09T07:14:42;7.40;99.90
33811;DHT22;20119;48.334;16.206;2023-04-09T07:17:10;7.60;99.90
33811;DHT22;20119;48.334;16.206;2023-04-09T07:19:40;7.50;99.90
33811;DHT22;20119;48.334;16.206;2023-04-09T07:22:07;7.20;99.90
33811;DHT22;20119;48.334;16.206;2023-04-09T07:24:34;7.30;99.90
33811;DHT22;20119;48.334;16.206;2023-04-09T07:27:04;7.40;99.90
33811;DHT22;20119;48.334;16.206;2023-04-09T07:29:31;7.40;99.90
33811;DHT22;20119;48.334;16.206;2023-04-09T07:31:59;7.50;99.90
33811;DHT22;20119;48.334;16.206;2023-04-09T07:34:28;7.40;99.90
33811;DHT22;20119;48.334;16.206;2023-04-09T07:36:57;7.60;99.90
33811;DHT22;20119;48.334;16.206;2023-04-09T07:39:24;7.60;99.90
33811;DHT22;20119;48.334;16.206;2023-04-09T07:41:52;7.50;99.90
33811;DHT22;20119;48.334;16.206;2023-04-09T07:44:21;7.60;99.90
33811;DHT22;20119;48.334;16.206;2023-04-09T07:46:50;7.70;99.90
33811;DHT22;20119;48.334;16.206;2023-04-09T07:49:19;7.60;99.90
33811;DHT22;20119;48.334;16.206;2023-04-09T07:51:47;7.70;99.90
33811;DHT22;20119;48.334;16.206;2023-04-09T07:54:16;7.80;99.90
33811;DHT22;20119;48.334;16.206;2023-04-09T07:56:46;7.60;99.90
33811;DHT22;20119;48.334;16.206;2023-04-09T07:59:13;7.70;99.90
33811;DHT22;20119;48.334;16.206;2023-04-09T08:01:41;7.80;99.90
33811;DHT22;20119;48.334;16.206;2023-04-09T08:04:08;7.90;99.90
33811;DHT22;20119;48.334;16.206;2023-04-09T08:06:37;8.10;99.90
33811;DHT22;20119;48.334;16.206;2023-04-09T08:09:04;8.30;99.90
33811;DHT22;20119;48.334;16.206;2023-04-09T08:11:33;8.20;99.90
33811;DHT22;20119;48.334;16.206;2023-04-09T08:14:00;8.40;99.90
33811;DHT22;20119;48.334;16.206;2023-04-09T08:16:29;8.30;99.90
33811;DHT22;20119;48.334;16.206;2023-04-09T08:18:57;8.20;99.90
33811;DHT22;20119;48.334;16.206;2023-04-09T08:21:24;8.50;99.90
33811;DHT22;20119;48.334;16.206;2023-04-09T08:23:51;8.70;99.90
33811;DHT22;20119;48.334;16.206;2023-04-09T08:26:18;8.70;99.90
33811;DHT22;20119;48.334;16.206;2023-04-09T08:28:49;9.00;99.90
33811;DHT22;20119;48.334;16.206;2023-04-09T08:31:17;8.90;99.90
33811;DHT22;20119;48.334;16.206;2023-04-09T08:33:44;9.30;99.90
33811;DHT22;20119;48.334;16.206;2023-04-09T08:36:12;9.00;99.90
33811;DHT22;20119;48.334;16.206;2023-04-09T08:38:41;9.10;99.90
33811;DHT22;20119;48.334;16.206;2023-04-09T08:41:16;8.80;99.90
33811;DHT22;20119;48.334;16.206;2023-04-09T08:43:47;8.60;99.90
33811;DHT22;20119;48.334;16.206;2023-04-09T08:46:14;8.20;99.90
33811;DHT22;20119;48.334;16.206;2023-04-09T08:48:45;8.40;99.90
33811;DHT22;20119;48.334;16.206;2023-04-09T08:51:14;8.60;99.90
33811;DHT22;20119;48.334;16.206;2023-04-09T08:53:43;8.40;99.90
33811;DHT22;20119;48.334;16.206;2023-04-09T08:56:13;8.40;99.90
33811;DHT22;20119;48.334;16.206;2023-04-09T08:58:41;8.80;99.90
33811;DHT22;20119;48.334;16.206;2023-04-09T09:01:23;8.80;99.90
33811;DHT22;20119;48.334;16.206;2023-04-09T09:03:56;9.00;99.90
33811;DHT22;20119;48.334;16.206;2023-04-09T09:06:25;8.90;99.90
33811;DHT22;20119;48.334;16.206;2023-04-09T09:09:04;9.20;99.90
33811;DHT22;20119;48.334;16.206;2023-04-09T09:11:34;9.50;99.90
33811;DHT22;20119;48.334;16.206;2023-04-09T09:14:05;9.70;99.90
33811;DHT22;20119;48.334;16.206;2023-04-09T09:16:34;9.20;99.90
33811;DHT22;20119;48.334;16.206;2023-04-09T09:19:05;9.30;99.90
33811;DHT22;20119;48.334;16.206;2023-04-09T09:21:32;9.00;99.90
33811;DHT22;20119;48.334;16.206;2023-04-09T09:24:01;9.10;99.90
33811;DHT22;20119;48.334;16.206;2023-04-09T09:26:43;8.80;99.90
33811;DHT22;20119;48.334;16.206;2023-04-09T09:29:11;8.60;99.90
33811;DHT22;20119;48.334;16.206;2023-04-09T09:31:48;8.60;99.90
33811;DHT22;20119;48.334;16.206;2023-04-09T09:34:16;8.90;99.90
33811;DHT22;20119;48.334;16.206;2023-04-09T09:36:45;8.90;99.90
33811;DHT22;20119;48.334;16.206;2023-04-09T09:39:14;9.10;99.90
33811;DHT22;20119;48.334;16.206;2023-04-09T09:41:43;9.30;99.90
33811;DHT22;20119;48.334;16.206;2023-04-09T09:44:30;9.00;99.90
33811;DHT22;20119;48.334;16.206;2023-04-09T09:47:01;8.90;99.90
33811;DHT22;20119;48.334;16.206;2023-04-09T09:49:29;9.20;99.90
33811;DHT22;20119;48.334;16.206;2023-04-09T09:51:59;9.60;99.90
33811;DHT22;20119;48.334;16.206;2023-04-09T09:54:29;9.60;99.90
33811;DHT22;20119;48.334;16.206;2023-04-09T09:57:03;9.30;99.90
33811;DHT22;20119;48.334;16.206;2023-04-09T09:59:36;9.50;99.90
33811;DHT22;20119;48.334;16.206;2023-04-09T10:02:14;9.70;99.90
33811;DHT22;20119;48.334;16.206;2023-04-09T10:04:45;10.00;99.90
33811;DHT22;20119;48.334;16.206;2023-04-09T10:07:14;9.70;99.90
33811;DHT22;20119;48.334;16.206;2023-04-09T10:09:48;9.50;99.90
33811;DHT22;20119;48.334;16.206;2023-04-09T10:12:16;9.90;99.90
33811;DHT22;20119;48.334;16.206;2023-04-09T10:14:44;9.80;99.90
33811;DHT22;20119;48.334;16.206;2023-04-09T10:17:13;9.80;99.90
33811;DHT22;20119;48.334;16.206;2023-04-09T10:19:48;10.20;99.90
33811;DHT22;20119;48.334;16.206;2023-04-09T10:22:23;10.40;99.90
33811;DHT22;20119;48.334;16.206;2023-04-09T10:24:52;10.00;99.90
33811;DHT22;20119;48.334;16.206;2023-04-09T10:27:21;10.00;99.90
33811;DHT22;20119;48.334;16.206;2023-04-09T10:29:50;9.80;99.90
33811;DHT22;20119;48.334;16.206;2023-04-09T10:32:20;9.50;99.90
33811;DHT22;20119;48.334;16.206;2023-04-09T10:34:51;9.30;99.90
33811;DHT22;20119;48.334;16.206;2023-04-09T10:37:21;9.30;99.90
33811;DHT22;20119;48.334;16.206;2023-04-09T10:39:50;9.50;99.90
33811;DHT22;20119;48.334;16.206;2023-04-09T10:42:21;10.00;99.90
33811;DHT22;20119;48.334;16.206;2023-04-09T10:45:04;9.90;99.90
33811;DHT22;20119;48.334;16.206;2023-04-09T10:47:35;10.00;99.90
33811;DHT22;20119;48.334;16.206;2023-04-09T10:50:15;10.30;99.90
33811;DHT22;20119;48.334;16.206;2023-04-09T10:52:44;10.30;99.90
33811;DHT22;20119;48.334;16.206;2023-04-09T10:55:40;10.20;99.90
33811;DHT22;20119;48.334;16.206;2023-04-09T10:58:10;10.70;99.90
33811;DHT22;20119;48.334;16.206;2023-04-09T11:00:39;10.70;99.90
33811;DHT22;20119;48.334;16.206;2023-04-09T11:03:21;11.00;99.90
33811;DHT22;20119;48.334;16.206;2023-04-09T11:05:51;11.30;99.90
33811;DHT22;20119;48.334;16.206;2023-04-09T11:08:21;11.60;99.90
33811;DHT22;20119;48.334;16.206;2023-04-09T11:10:48;11.70;99.90
33811;DHT22;20119;48.334;16.206;2023-04-09T11:13:16;11.90;99.90
33811;DHT22;20119;48.334;16.206;2023-04-09T11:15:45;11.70;99.90
33811;DHT22;20119;48.334;16.206;2023-04-09T11:18:21;11.30;99.90
33811;DHT22;20119;48.334;16.206;2023-04-09T11:20:49;11.70;99.90
33811;DHT22;20119;48.334;16.206;2023-04-09T11:23:20;11.90;99.90
33811;DHT22;20119;48.334;16.206;2023-04-09T11:25:48;11.90;99.90
33811;DHT22;20119;48.334;16.206;2023-04-09T11:28:17;12.00;99.90
33811;DHT22;20119;48.334;16.206;2023-04-09T11:30:45;12.10;99.90
33811;DHT22;20119;48.334;16.206;2023-04-09T11:33:13;12.20;99.90
33811;DHT22;20119;48.334;16.206;2023-04-09T11:35:42;12.00;99.90
33811;DHT22;20119;48.334;16.206;2023-04-09T11:38:10;11.90;99.90
33811;DHT22;20119;48.334;16.206;2023-04-09T11:40:41;12.30;99.90
33811;DHT22;20119;48.334;16.206;2023-04-09T11:43:13;11.90;99.90
33811;DHT22;20119;48.334;16.206;2023-04-09T11:45:42;12.20;99.90
33811;DHT22;20119;48.334;16.206;2023-04-09T11:48:11;11.90;99.90
33811;DHT22;20119;48.334;16.206;2023-04-09T11:50:41;12.60;99.90
33811;DHT22;20119;48.334;16.206;2023-04-09T11:53:16;13.10;99.90
33811;DHT22;20119;48.334;16.206;2023-04-09T11:55:49;13.00;99.90
33811;DHT22;20119;48.334;16.206;2023-04-09T11:58:21;13.20;99.90
33811;DHT22;20119;48.334;16.206;2023-04-09T12:00:52;13.20;99.90
33811;DHT22;20119;48.334;16.206;2023-04-09T12:03:26;12.90;99.90
33811;DHT22;20119;48.334;16.206;2023-04-09T12:05:59;12.70;99.90
33811;DHT22;20119;48.334;16.206;2023-04-09T12:08:27;11.90;99.90
33811;DHT22;20119;48.334;16.206;2023-04-09T12:10:55;12.20;99.90
33811;DHT22;20119;48.334;16.206;2023-04-09T12:13:31;12.10;99.90
33811;DHT22;20119;48.334;16.206;2023-04-09T12:16:00;12.20;99.90
33811;DHT22;20119;48.334;16.206;2023-04-09T12:18:28;12.40;99.90
33811;DHT22;20119;48.334;16.206;2023-04-09T12:20:58;12.50;99.90
33811;DHT22;20119;48.334;16.206;2023-04-09T12:23:27;12.50;99.90
33811;DHT22;20119;48.334;16.206;2023-04-09T12:25:56;12.60;99.90
33811;DHT22;20119;48.334;16.206;2023-04-09T12:28:26;12.40;99.90
33811;DHT22;20119;48.334;16.206;2023-04-09T12:30:54;12.10;99.90
33811;DHT22;20119;48.334;16.206;2023-04-09T12:33:22;11.90;99.90
33811;DHT22;20119;48.334;16.206;2023-04-09T12:35:49;11.80;99.90
33811;DHT22;20119;48.334;16.206;2023-04-09T12:38:18;11.90;99.90
33811;DHT22;20119;48.334;16.206;2023-04-09T12:40:46;12.30;99.90
33811;DHT22;20119;48.334;16.206;2023-04-09T12:43:13;12.10;99.90
33811;DHT22;20119;48.334;16.206;2023-04-09T12:45:41;12.10;99.90
33811;DHT22;20119;48.334;16.206;2023-04-09T12:48:25;11.90;99.90
33811;DHT22;20119;48.334;16.206;2023-04-09T12:50:53;11.80;99.90
33811;DHT22;20119;48.334;16.206;2023-04-09T12:53:22;12.30;99.90
33811;DHT22;20119;48.334;16.206;2023-04-09T12:55:50;12.30;99.90
33811;DHT22;20119;48.334;16.206;2023-04-09T12:58:18;11.90;99.90
33811;DHT22;20119;48.334;16.206;2023-04-09T13:00:46;11.60;99.90
33811;DHT22;20119;48.334;16.206;2023-04-09T13:03:13;11.60;99.90
33811;DHT22;20119;48.334;16.206;2023-04-09T13:05:44;11.80;99.90
33811;DHT22;20119;48.334;16.206;2023-04-09T13:08:11;11.90;99.90
33811;DHT22;20119;48.334;16.206;2023-04-09T13:10:42;11.90;99.90
33811;DHT22;20119;48.334;16.206;2023-04-09T13:13:10;11.80;99.90
33811;DHT22;20119;48.334;16.206;2023-04-09T13:15:38;11.80;99.90
33811;DHT22;20119;48.334;16.206;2023-04-09T13:18:08;11.80;99.90
33811;DHT22;20119;48.334;16.206;2023-04-09T13:20:35;11.70;99.90
33811;DHT22;20119;48.334;16.206;2023-04-09T13:23:02;11.50;99.90
33811;DHT22;20119;48.334;16.206;2023-04-09T13:25:30;11.50;99.90
33811;DHT22;20119;48.334;16.206;2023-04-09T13:27:59;11.10;99.90
33811;DHT22;20119;48.334;16.206;2023-04-09T13:30:26;11.00;99.90
33811;DHT22;20119;48.334;16.206;2023-04-09T13:32:54;11.00;99.90
33811;DHT22;20119;48.334;16.206;2023-04-09T13:35:21;11.10;99.90
33811;DHT22;20119;48.334;16.206;2023-04-09T13:37:50;11.30;99.90
33811;DHT22;20119;48.334;16.206;2023-04-09T13:40:18;11.50;99.90
33811;DHT22;20119;48.334;16.206;2023-04-09T13:42:45;11.80;99.90
33811;DHT22;20119;48.334;16.206;2023-04-09T13:45:14;11.70;99.90
33811;DHT22;20119;48.334;16.206;2023-04-09T13:47:44;11.80;99.90
33811;DHT22;20119;48.334;16.206;2023-04-09T13:50:15;11.90;99.90
33811;DHT22;20119;48.334;16.206;2023-04-09T13:52:42;12.00;99.90
33811;DHT22;20119;48.334;16.206;2023-04-09T13:55:11;12.20;99.90
33811;DHT22;20119;48.334;16.206;2023-04-09T13:57:39;12.20;99.90
33811;DHT22;20119;48.334;16.206;2023-04-09T14:00:09;12.20;99.90
33811;DHT22;20119;48.334;16.206;2023-04-09T14:02:37;11.70;99.90
33811;DHT22;20119;48.334;16.206;2023-04-09T14:05:06;11.10;99.90
33811;DHT22;20119;48.334;16.206;2023-04-09T14:07:33;11.00;99.90
33811;DHT22;20119;48.334;16.206;2023-04-09T14:10:01;10.60;99.90
33811;DHT22;20119;48.334;16.206;2023-04-09T14:12:29;10.50;99.90
33811;DHT22;20119;48.334;16.206;2023-04-09T14:14:57;10.50;99.90
33811;DHT22;20119;48.334;16.206;2023-04-09T14:17:25;10.30;99.90
33811;DHT22;20119;48.334;16.206;2023-04-09T14:19:55;9.70;99.90
33811;DHT22;20119;48.334;16.206;2023-04-09T14:22:23;9.50;99.90
33811;DHT22;20119;48.334;16.206;2023-04-09T14:24:51;9.40;99.90
33811;DHT22;20119;48.334;16.206;2023-04-09T14:27:19;9.30;99.90
33811;DHT22;20119;48.334;16.206;2023-04-09T14:29:47;9.30;99.90
33811;DHT22;20119;48.334;16.206;2023-04-09T14:32:15;9.50;99.90
33811;DHT22;20119;48.334;16.206;2023-04-09T14:34:44;9.30;99.90
33811;DHT22;20119;48.334;16.206;2023-04-09T14:37:14;9.40;99.90
33811;DHT22;20119;48.334;16.206;2023-04-09T14:39:42;9.40;99.90
33811;DHT22;20119;48.334;16.206;2023-04-09T14:42:10;9.40;99.90
33811;DHT22;20119;48.334;16.206;2023-04-09T14:44:37;9.60;99.90
33811;DHT22;20119;48.334;16.206;2023-04-09T14:47:06;9.70;99.90
33811;DHT22;20119;48.334;16.206;2023-04-09T14:49:33;9.90;99.90
33811;DHT22;20119;48.334;16.206;2023-04-09T14:52:00;10.00;99.90
33811;DHT22;20119;48.334;16.206;2023-04-09T14:54:31;10.10;99.90
33811;DHT22;20119;48.334;16.206;2023-04-09T14:56:59;10.10;99.90
33811;DHT22;20119;48.334;16.206;2023-04-09T14:59:28;10.10;99.90
33811;DHT22;20119;48.334;16.206;2023-04-09T15:01:56;10.20;99.90
33811;DHT22;20119;48.334;16.206;2023-04-09T15:04:23;10.20;99.90
33811;DHT22;20119;48.334;16.206;2023-04-09T15:06:51;9.90;99.90
33811;DHT22;20119;48.334;16.206;2023-04-09T15:09:18;10.10;99.90
33811;DHT22;20119;48.334;16.206;2023-04-09T15:11:47;10.10;99.90
33811;DHT22;20119;48.334;16.206;2023-04-09T15:14:14;10.40;99.90
33811;DHT22;20119;48.334;16.206;2023-04-09T15:16:41;10.50;99.90
33811;DHT22;20119;48.334;16.206;2023-04-09T15:19:09;10.30;99.90
33811;DHT22;20119;48.334;16.206;2023-04-09T15:21:36;10.40;99.90
33811;DHT22;20119;48.334;16.206;2023-04-09T15:24:04;10.20;99.90
33811;DHT22;20119;48.334;16.206;2023-04-09T15:26:33;10.10;99.90
33811;DHT22;20119;48.334;16.206;2023-04-09T15:29:05;10.00;99.90
33811;DHT22;20119;48.334;16.206;2023-04-09T15:31:33;10.10;99.90
33811;DHT22;20119;48.334;16.206;2023-04-09T15:34:00;9.80;99.90
33811;DHT22;20119;48.334;16.206;2023-04-09T15:36:27;9.70;99.90
33811;DHT22;20119;48.334;16.206;2023-04-09T15:38:56;9.60;99.90
33811;DHT22;20119;48.334;16.206;2023-04-09T15:41:24;9.50;99.90